Fairmount Summit — PBNG — position and weather

sailwx.info

Track history (hours):
 
Tides and Currents Weather Stations Pressure Air Temp Water Temp Dewpoint Dewpoint Depression Visibility Wind Speed Wind Dir Waves Ship Positions

Fairmount Summit

Last reported at 2018-Mar-04 11:42 UTC. Time now 2018-May-26 13:57 UTC.
Position N 27°43' W 015°19'.
Warning: this ship's position is months out of date.

Length 75 m; draft 6.2 m.

Type: Tow > 200 m length. MMSI: 245614000.

Date/timePositionNaut miles runAvg speedWind from/ knotsBaromVisibWave heightAir tempDewpointWater temp
2018-Mar-04 11:42N 27°43' W 015°19'314.2
2018-Mar-04 11:30N 27°46' W 015°18'713.0
2018-Mar-04 11:00N 27°52' W 015°16'612.5
2018-Mar-04 10:30N 27°59' W 015°16'612.4
2018-Mar-04 10:00N 28°04' W 015°20'611.5
2018-Mar-04 09:30N 28°08' W 015°25'1 1.1
2018-Mar-04 08:45N 28°08' W 015°25'0 0.0
2018-Mar-04 08:27N 28°08' W 015°25'0 0.0
2018-Mar-04 08:00N 28°08' W 015°25'0 0.0
2018-Mar-04 07:30N 28°08' W 015°25'0 0.0
2018-Mar-04 07:00N 28°08' W 015°25'0 0.0
2018-Mar-04 06:27N 28°08' W 015°25'0 0.0
2018-Mar-04 05:42N 28°08' W 015°25'0 0.0
2018-Mar-04 05:30N 28°08' W 015°25'0 0.0
2018-Mar-04 05:00N 28°08' W 015°25'0 0.0
2018-Mar-04 04:18N 28°08' W 015°25'0 0.0
2018-Mar-04 03:57N 28°08' W 015°25'0 0.0
2018-Mar-04 03:30N 28°08' W 015°25'0 0.0
2018-Mar-04 03:00N 28°08' W 015°25'0 0.0
2018-Mar-04 02:30N 28°08' W 015°25'0 0.0
2018-Mar-04 02:00N 28°08' W 015°25'0 0.0
2018-Mar-04 01:30N 28°08' W 015°25'0 0.0
2018-Mar-04 01:00N 28°08' W 015°25'0 0.0
2018-Mar-04 00:21N 28°08' W 015°25'0 0.0
2018-Mar-04 00:00N 28°08' W 015°25'0 0.0
2018-Mar-03 23:30N 28°08' W 015°25'0 0.0
2018-Mar-03 23:00N 28°08' W 015°25'0 0.0
2018-Mar-03 22:30N 28°08' W 015°25'0 0.0
2018-Mar-03 21:48N 28°08' W 015°25'0 0.0
2018-Mar-03 21:21N 28°08' W 015°25'0 0.0
2018-Mar-03 20:50N 28°08' W 015°25'0 0.0
2018-Mar-03 20:23N 28°08' W 015°25'0 0.0
2018-Mar-03 19:38N 28°08' W 015°25'0 0.0
2018-Mar-03 19:23N 28°08' W 015°25'0 0.0
2018-Mar-03 18:53N 28°08' W 015°25'0 0.0
2018-Mar-03 18:17N 28°08' W 015°25'0 0.0
2018-Mar-03 17:50N 28°08' W 015°25'0 0.0
2018-Mar-03 17:23N 28°08' W 015°25'0 0.0
2018-Mar-03 16:50N 28°08' W 015°25'0 0.0
2018-Mar-03 16:20N 28°08' W 015°25'0 0.0
2018-Mar-03 15:53N 28°08' W 015°25'0 0.0
2018-Mar-03 15:23N 28°08' W 015°25'0 0.0
2018-Mar-03 14:53N 28°08' W 015°25'0 0.0
2018-Mar-03 14:23N 28°08' W 015°25'0 0.0
2018-Mar-03 13:53N 28°08' W 015°25'0 0.0
2018-Mar-03 13:26N 28°08' W 015°25'0 0.0
2018-Mar-03 12:56N 28°08' W 015°25'0 0.0
2018-Mar-03 12:26N 28°08' W 015°25'0 0.0
2018-Mar-03 11:56N 28°08' W 015°25'0 0.0
2018-Mar-03 11:26N 28°08' W 015°25'0 0.0
2018-Mar-03 10:56N 28°08' W 015°25'0 0.0
2018-Mar-03 10:27N 28°08' W 015°25'1 2.9
2018-Mar-03 10:00N 28°07' W 015°25'2 3.6
2018-Mar-03 09:30N 28°07' W 015°23'1 2.9
2018-Mar-03 09:00N 28°08' W 015°22'612.1
2018-Mar-03 08:30N 28°12' W 015°17'713.6
2018-Mar-03 08:00N 28°17' W 015°11'713.5
2018-Mar-03 07:30N 28°22' W 015°06'713.3
2018-Mar-03 07:00N 28°27' W 015°01'713.4
2018-Mar-03 06:30N 28°32' W 014°55'713.4
2018-Mar-03 06:00N 28°36' W 014°50'713.2
2018-Mar-03 05:29N 28°41' W 014°45'  
2018-Feb-28 00:13N 36°00' W 005°29'2 9.5
2018-Feb-28 00:00N 36°01' W 005°27'5 9.6
2018-Feb-27 23:30N 36°03' W 005°21'6 0.3
2018-Feb-27 05:20N 36°08' W 005°18'0 0.0
2018-Feb-27 04:50N 36°08' W 005°18'0 0.1
2018-Feb-27 04:30N 36°08' W 005°18'0 0.0
2018-Feb-27 04:00N 36°08' W 005°18'0 0.0
2018-Feb-27 03:30N 36°08' W 005°18'0 0.1
2018-Feb-27 02:52N 36°08' W 005°18'0 0.0
2018-Feb-27 02:13N 36°08' W 005°18'0 0.1
2018-Feb-27 01:58N 36°08' W 005°18'0 0.1
2018-Feb-27 01:28N 36°08' W 005°18'0 0.0
2018-Feb-27 00:58N 36°08' W 005°18'0 0.0
2018-Feb-27 00:28N 36°08' W 005°18'0 0.0
2018-Feb-26 23:49N 36°08' W 005°18'0 0.0
2018-Feb-26 23:28N 36°08' W 005°18'0 0.0
2018-Feb-26 22:58N 36°08' W 005°18'0 0.0
2018-Feb-26 22:28N 36°08' W 005°18'0 0.0
2018-Feb-26 21:56N 36°08' W 005°18'0 0.0
2018-Feb-26 21:29N 36°08' W 005°18'0 0.0
2018-Feb-26 20:59N 36°08' W 005°18'0 0.1
2018-Feb-26 20:25N 36°08' W 005°18'0 0.0
2018-Feb-26 07:11N 36°08' W 005°18'0 0.0
2018-Feb-26 06:44N 36°08' W 005°18'0 0.1
2018-Feb-26 06:28N 36°08' W 005°18'0 0.0
2018-Feb-26 05:52N 36°08' W 005°18'0 0.0
2018-Feb-26 05:25N 36°08' W 005°18'0 0.0
2018-Feb-26 04:58N 36°08' W 005°18'0 0.0
2018-Feb-26 04:28N 36°08' W 005°18'0 0.0
2018-Feb-26 03:52N 36°08' W 005°18'0 0.0
2018-Feb-26 03:28N 36°08' W 005°18'0 0.0
2018-Feb-26 02:52N 36°08' W 005°18'0 0.0
2018-Feb-26 02:28N 36°08' W 005°18'0 0.0
2018-Feb-26 01:58N 36°08' W 005°18'0 0.0
2018-Feb-26 01:19N 36°08' W 005°18'0 0.0
2018-Feb-26 00:58N 36°08' W 005°18'0 0.1
2018-Feb-26 00:31N 36°08' W 005°18'0 0.1
2018-Feb-26 00:00N 36°08' W 005°18'0 0.1
2018-Feb-25 23:30N 36°08' W 005°18'0 0.1
2018-Feb-25 22:54N 36°08' W 005°18'0 0.0
2018-Feb-25 22:27N 36°08' W 005°18'0 0.0
2018-Feb-25 21:57N 36°08' W 005°18'0 0.0
2018-Feb-25 21:30N 36°08' W 005°18'0 0.0
2018-Feb-25 20:51N 36°08' W 005°18'0 0.0
2018-Feb-25 20:28N 36°08' W 005°18'0 0.0
2018-Feb-25 19:57N 36°08' W 005°18'0 0.0
2018-Feb-25 19:30N 36°08' W 005°18'0 0.0
2018-Feb-25 17:06N 36°08' W 005°18'0 0.0
2018-Feb-25 16:57N 36°08' W 005°18'0 0.0
2018-Feb-25 16:21N 36°08' W 005°18'0 0.0
2018-Feb-25 15:03N 36°08' W 005°18'0 0.1
2018-Feb-25 14:59N 36°08' W 005°18'0 0.0
2018-Feb-25 14:24N 36°08' W 005°18'0 0.0
2018-Feb-25 13:58N 36°08' W 005°18'0 0.0
2018-Feb-25 13:30N 36°08' W 005°18'0 0.0
2018-Feb-25 12:57N 36°08' W 005°18'0 0.0
2018-Feb-25 08:09N 36°08' W 005°18'0 0.1
2018-Feb-25 07:58N 36°08' W 005°18'0 0.0
2018-Feb-25 07:27N 36°08' W 005°18'0 0.0
2018-Feb-25 06:58N 36°08' W 005°18'0 0.0
2018-Feb-25 06:28N 36°08' W 005°18'0 0.0
2018-Feb-25 06:00N 36°08' W 005°18'0 0.0
2018-Feb-25 05:23N 36°08' W 005°18'0 0.0
2018-Feb-25 04:47N 36°08' W 005°18'0 0.0
2018-Feb-25 04:23N 36°08' W 005°18'0 0.0
2018-Feb-25 03:57N 36°08' W 005°18'0 0.0
2018-Feb-25 03:27N 36°08' W 005°18'0 0.0
2018-Feb-25 03:00N 36°08' W 005°18'0 0.0
2018-Feb-25 02:21N 36°08' W 005°18'0 0.0
2018-Feb-25 01:57N 36°08' W 005°18'0 0.0
2018-Feb-25 01:30N 36°08' W 005°18'0 0.0
2018-Feb-25 00:58N 36°08' W 005°18'0 0.0
2018-Feb-25 00:27N 36°08' W 005°18'0 0.0
2018-Feb-24 23:57N 36°08' W 005°18'0 0.0
2018-Feb-24 23:24N 36°08' W 005°18'0 0.0
2018-Feb-24 22:57N 36°08' W 005°18'0 0.0
2018-Feb-24 22:30N 36°08' W 005°18'0 0.0
2018-Feb-24 22:00N 36°08' W 005°18'0 0.0
2018-Feb-24 21:30N 36°08' W 005°18'0 0.0
2018-Feb-24 20:57N 36°08' W 005°18'0 0.0
2018-Feb-24 20:27N 36°08' W 005°18'0 0.0
2018-Feb-24 14:11N 36°08' W 005°18'0 0.0
2018-Feb-24 07:14N 36°08' W 005°18'0 0.0
2018-Feb-24 06:59N 36°08' W 005°18'0 0.0
2018-Feb-24 06:29N 36°08' W 005°18'0 0.1
2018-Feb-24 05:56N 36°08' W 005°18'0 0.0
2018-Feb-24 05:29N 36°08' W 005°18'0 0.0
2018-Feb-24 04:59N 36°08' W 005°18'0 0.1
2018-Feb-24 04:29N 36°08' W 005°18'0 0.0
2018-Feb-24 03:53N 36°08' W 005°18'0 0.0
2018-Feb-24 03:29N 36°08' W 005°18'0 0.0
2018-Feb-24 02:56N 36°08' W 005°18'0 0.0
2018-Feb-24 02:27N 36°08' W 005°18'0 0.0
2018-Feb-24 01:59N 36°08' W 005°18'0 0.0
2018-Feb-24 01:29N 36°08' W 005°18'0 0.0
2018-Feb-24 00:53N 36°08' W 005°18'0 0.0
2018-Feb-24 00:29N 36°08' W 005°18'0 0.0
2018-Feb-23 23:56N 36°08' W 005°18'0 0.0
2018-Feb-23 23:29N 36°08' W 005°18'0 0.0
2018-Feb-23 22:59N 36°08' W 005°18'0 0.0
2018-Feb-23 22:29N 36°08' W 005°18'0 0.0
2018-Feb-23 21:56N 36°08' W 005°18'0 0.1
2018-Feb-23 21:26N 36°08' W 005°18'0 0.0
2018-Feb-23 20:59N 36°08' W 005°18'0 0.0
2018-Feb-23 20:29N 36°08' W 005°18'0 0.0
2018-Feb-23 19:53N 36°08' W 005°18'0 0.2
2018-Feb-23 19:29N 36°08' W 005°18'  
Track history (hours):
 
Tides and Currents Weather Stations Pressure Air Temp Water Temp Dewpoint Dewpoint Depression Visibility Wind Speed Wind Dir Waves Ship Positions

Fairmount Summit

Last reported at 2018-Mar-04 11:42 UTC. Time now 2018-May-26 13:57 UTC.
Position N 27°43' W 015°19'.
Warning: this ship's position is months out of date.

Length 75 m; draft 6.2 m.

Type: Tow > 200 m length. MMSI: 245614000.

Date/timePositionNaut miles runAvg speedWind from/ knotsBaromVisibWave heightAir tempDewpointWater temp
2018-Mar-04 11:42N 27°43' W 015°19'314.2
2018-Mar-04 11:30N 27°46' W 015°18'713.0
2018-Mar-04 11:00N 27°52' W 015°16'612.5
2018-Mar-04 10:30N 27°59' W 015°16'612.4
2018-Mar-04 10:00N 28°04' W 015°20'611.5
2018-Mar-04 09:30N 28°08' W 015°25'1 1.1
2018-Mar-04 08:45N 28°08' W 015°25'0 0.0
2018-Mar-04 08:27N 28°08' W 015°25'0 0.0
2018-Mar-04 08:00N 28°08' W 015°25'0 0.0
2018-Mar-04 07:30N 28°08' W 015°25'0 0.0
2018-Mar-04 07:00N 28°08' W 015°25'0 0.0
2018-Mar-04 06:27N 28°08' W 015°25'0 0.0
2018-Mar-04 05:42N 28°08' W 015°25'0 0.0
2018-Mar-04 05:30N 28°08' W 015°25'0 0.0
2018-Mar-04 05:00N 28°08' W 015°25'0 0.0
2018-Mar-04 04:18N 28°08' W 015°25'0 0.0
2018-Mar-04 03:57N 28°08' W 015°25'0 0.0
2018-Mar-04 03:30N 28°08' W 015°25'0 0.0
2018-Mar-04 03:00N 28°08' W 015°25'0 0.0
2018-Mar-04 02:30N 28°08' W 015°25'0 0.0
2018-Mar-04 02:00N 28°08' W 015°25'0 0.0
2018-Mar-04 01:30N 28°08' W 015°25'0 0.0
2018-Mar-04 01:00N 28°08' W 015°25'0 0.0
2018-Mar-04 00:21N 28°08' W 015°25'0 0.0
2018-Mar-04 00:00N 28°08' W 015°25'0 0.0
2018-Mar-03 23:30N 28°08' W 015°25'0 0.0
2018-Mar-03 23:00N 28°08' W 015°25'0 0.0
2018-Mar-03 22:30N 28°08' W 015°25'0 0.0
2018-Mar-03 21:48N 28°08' W 015°25'0 0.0
2018-Mar-03 21:21N 28°08' W 015°25'0 0.0
2018-Mar-03 20:50N 28°08' W 015°25'0 0.0
2018-Mar-03 20:23N 28°08' W 015°25'0 0.0
2018-Mar-03 19:38N 28°08' W 015°25'0 0.0
2018-Mar-03 19:23N 28°08' W 015°25'0 0.0
2018-Mar-03 18:53N 28°08' W 015°25'0 0.0
2018-Mar-03 18:17N 28°08' W 015°25'0 0.0
2018-Mar-03 17:50N 28°08' W 015°25'0 0.0
2018-Mar-03 17:23N 28°08' W 015°25'0 0.0
2018-Mar-03 16:50N 28°08' W 015°25'0 0.0
2018-Mar-03 16:20N 28°08' W 015°25'0 0.0
2018-Mar-03 15:53N 28°08' W 015°25'0 0.0
2018-Mar-03 15:23N 28°08' W 015°25'0 0.0
2018-Mar-03 14:53N 28°08' W 015°25'0 0.0
2018-Mar-03 14:23N 28°08' W 015°25'0 0.0
2018-Mar-03 13:53N 28°08' W 015°25'0 0.0
2018-Mar-03 13:26N 28°08' W 015°25'0 0.0
2018-Mar-03 12:56N 28°08' W 015°25'0 0.0
2018-Mar-03 12:26N 28°08' W 015°25'0 0.0
2018-Mar-03 11:56N 28°08' W 015°25'0 0.0
2018-Mar-03 11:26N 28°08' W 015°25'0 0.0
2018-Mar-03 10:56N 28°08' W 015°25'0 0.0
2018-Mar-03 10:27N 28°08' W 015°25'1 2.9
2018-Mar-03 10:00N 28°07' W 015°25'2 3.6
2018-Mar-03 09:30N 28°07' W 015°23'1 2.9
2018-Mar-03 09:00N 28°08' W 015°22'612.1
2018-Mar-03 08:30N 28°12' W 015°17'713.6
2018-Mar-03 08:00N 28°17' W 015°11'713.5
2018-Mar-03 07:30N 28°22' W 015°06'713.3
2018-Mar-03 07:00N 28°27' W 015°01'713.4
2018-Mar-03 06:30N 28°32' W 014°55'713.4
2018-Mar-03 06:00N 28°36' W 014°50'713.2
2018-Mar-03 05:29N 28°41' W 014°45'  
2018-Feb-28 00:13N 36°00' W 005°29'2 9.5
2018-Feb-28 00:00N 36°01' W 005°27'5 9.6
2018-Feb-27 23:30N 36°03' W 005°21'6 0.3
2018-Feb-27 05:20N 36°08' W 005°18'0 0.0
2018-Feb-27 04:50N 36°08' W 005°18'0 0.1
2018-Feb-27 04:30N 36°08' W 005°18'0 0.0
2018-Feb-27 04:00N 36°08' W 005°18'0 0.0
2018-Feb-27 03:30N 36°08' W 005°18'0 0.1
2018-Feb-27 02:52N 36°08' W 005°18'0 0.0
2018-Feb-27 02:13N 36°08' W 005°18'0 0.1
2018-Feb-27 01:58N 36°08' W 005°18'0 0.1
2018-Feb-27 01:28N 36°08' W 005°18'0 0.0
2018-Feb-27 00:58N 36°08' W 005°18'0 0.0
2018-Feb-27 00:28N 36°08' W 005°18'0 0.0
2018-Feb-26 23:49N 36°08' W 005°18'0 0.0
2018-Feb-26 23:28N 36°08' W 005°18'0 0.0
2018-Feb-26 22:58N 36°08' W 005°18'0 0.0
2018-Feb-26 22:28N 36°08' W 005°18'0 0.0
2018-Feb-26 21:56N 36°08' W 005°18'0 0.0
2018-Feb-26 21:29N 36°08' W 005°18'0 0.0
2018-Feb-26 20:59N 36°08' W 005°18'0 0.1
2018-Feb-26 20:25N 36°08' W 005°18'0 0.0
2018-Feb-26 07:11N 36°08' W 005°18'0 0.0
2018-Feb-26 06:44N 36°08' W 005°18'0 0.1
2018-Feb-26 06:28N 36°08' W 005°18'0 0.0
2018-Feb-26 05:52N 36°08' W 005°18'0 0.0
2018-Feb-26 05:25N 36°08' W 005°18'0 0.0
2018-Feb-26 04:58N 36°08' W 005°18'0 0.0
2018-Feb-26 04:28N 36°08' W 005°18'0 0.0
2018-Feb-26 03:52N 36°08' W 005°18'0 0.0
2018-Feb-26 03:28N 36°08' W 005°18'0 0.0
2018-Feb-26 02:52N 36°08' W 005°18'0 0.0
2018-Feb-26 02:28N 36°08' W 005°18'0 0.0
2018-Feb-26 01:58N 36°08' W 005°18'0 0.0
2018-Feb-26 01:19N 36°08' W 005°18'0 0.0
2018-Feb-26 00:58N 36°08' W 005°18'0 0.1
2018-Feb-26 00:31N 36°08' W 005°18'0 0.1
2018-Feb-26 00:00N 36°08' W 005°18'0 0.1
2018-Feb-25 23:30N 36°08' W 005°18'0 0.1
2018-Feb-25 22:54N 36°08' W 005°18'0 0.0
2018-Feb-25 22:27N 36°08' W 005°18'0 0.0
2018-Feb-25 21:57N 36°08' W 005°18'0 0.0
2018-Feb-25 21:30N 36°08' W 005°18'0 0.0
2018-Feb-25 20:51N 36°08' W 005°18'0 0.0
2018-Feb-25 20:28N 36°08' W 005°18'0 0.0
2018-Feb-25 19:57N 36°08' W 005°18'0 0.0
2018-Feb-25 19:30N 36°08' W 005°18'0 0.0
2018-Feb-25 17:06N 36°08' W 005°18'0 0.0
2018-Feb-25 16:57N 36°08' W 005°18'0 0.0
2018-Feb-25 16:21N 36°08' W 005°18'0 0.0
2018-Feb-25 15:03N 36°08' W 005°18'0 0.1
2018-Feb-25 14:59N 36°08' W 005°18'0 0.0
2018-Feb-25 14:24N 36°08' W 005°18'0 0.0
2018-Feb-25 13:58N 36°08' W 005°18'0 0.0
2018-Feb-25 13:30N 36°08' W 005°18'0 0.0
2018-Feb-25 12:57N 36°08' W 005°18'0 0.0
2018-Feb-25 08:09N 36°08' W 005°18'0 0.1
2018-Feb-25 07:58N 36°08' W 005°18'0 0.0
2018-Feb-25 07:27N 36°08' W 005°18'0 0.0
2018-Feb-25 06:58N 36°08' W 005°18'0 0.0
2018-Feb-25 06:28N 36°08' W 005°18'0 0.0
2018-Feb-25 06:00N 36°08' W 005°18'0 0.0
2018-Feb-25 05:23N 36°08' W 005°18'0 0.0
2018-Feb-25 04:47N 36°08' W 005°18'0 0.0
2018-Feb-25 04:23N 36°08' W 005°18'0 0.0
2018-Feb-25 03:57N 36°08' W 005°18'0 0.0
2018-Feb-25 03:27N 36°08' W 005°18'0 0.0
2018-Feb-25 03:00N 36°08' W 005°18'0 0.0
2018-Feb-25 02:21N 36°08' W 005°18'0 0.0
2018-Feb-25 01:57N 36°08' W 005°18'0 0.0
2018-Feb-25 01:30N 36°08' W 005°18'0 0.0
2018-Feb-25 00:58N 36°08' W 005°18'0 0.0
2018-Feb-25 00:27N 36°08' W 005°18'0 0.0
2018-Feb-24 23:57N 36°08' W 005°18'0 0.0
2018-Feb-24 23:24N 36°08' W 005°18'0 0.0
2018-Feb-24 22:57N 36°08' W 005°18'0 0.0
2018-Feb-24 22:30N 36°08' W 005°18'0 0.0
2018-Feb-24 22:00N 36°08' W 005°18'0 0.0
2018-Feb-24 21:30N 36°08' W 005°18'0 0.0
2018-Feb-24 20:57N 36°08' W 005°18'0 0.0
2018-Feb-24 20:27N 36°08' W 005°18'0 0.0
2018-Feb-24 14:11N 36°08' W 005°18'0 0.0
2018-Feb-24 07:14N 36°08' W 005°18'0 0.0
2018-Feb-24 06:59N 36°08' W 005°18'0 0.0
2018-Feb-24 06:29N 36°08' W 005°18'0 0.1
2018-Feb-24 05:56N 36°08' W 005°18'0 0.0
2018-Feb-24 05:29N 36°08' W 005°18'0 0.0
2018-Feb-24 04:59N 36°08' W 005°18'0 0.1
2018-Feb-24 04:29N 36°08' W 005°18'0 0.0
2018-Feb-24 03:53N 36°08' W 005°18'0 0.0
2018-Feb-24 03:29N 36°08' W 005°18'0 0.0
2018-Feb-24 02:56N 36°08' W 005°18'0 0.0
2018-Feb-24 02:27N 36°08' W 005°18'0 0.0
2018-Feb-24 01:59N 36°08' W 005°18'0 0.0
2018-Feb-24 01:29N 36°08' W 005°18'0 0.0
2018-Feb-24 00:53N 36°08' W 005°18'0 0.0
2018-Feb-24 00:29N 36°08' W 005°18'0 0.0
2018-Feb-23 23:56N 36°08' W 005°18'0 0.0
2018-Feb-23 23:29N 36°08' W 005°18'0 0.0
2018-Feb-23 22:59N 36°08' W 005°18'0 0.0
2018-Feb-23 22:29N 36°08' W 005°18'0 0.0
2018-Feb-23 21:56N 36°08' W 005°18'0 0.1
2018-Feb-23 21:26N 36°08' W 005°18'0 0.0
2018-Feb-23 20:59N 36°08' W 005°18'0 0.0
2018-Feb-23 20:29N 36°08' W 005°18'0 0.0
2018-Feb-23 19:53N 36°08' W 005°18'0 0.2
2018-Feb-23 19:29N 36°08' W 005°18'  

Dump ship's entire track history